Nearby METAR (Airport) Reports

 

KPRN - Greenville, Alabama, USA
Distance from station: WNW 17mi, 28km
Updated: Wed, 17-Oct-2018 2:06pm CDT
Overcast
Overcast
 Wind from N
Wind: N 8 mph , 13 km/h
Temperature: 79°F , 26°C
Dew Point: 66°F , 19°C
Humidity: 65%
Barometer: 30.19 inHg , 1022.4 hPa
Clouds: Overcast
Visibility: 10 miles , 16 km
Cloud details: Overcast 1500 ft
2018/10/17 19:06 KPRN 171906Z AUTO 01007KT 10SM OVC015 26/19 A3019 RMK AO2 T02560189
KTOI - Troy, Alabama, USA
Distance from station: ENE 21mi, 34km
Updated: Wed, 17-Oct-2018 2:53pm CDT
Overcast
Overcast
 Wind from N
Wind: N 13 mph , 20 km/h
Temperature: 79°F , 26°C
Dew Point: 68°F , 20°C
Humidity: 70%
Barometer: 30.18 inHg , 1022 hPa
Clouds: Overcast
Visibility: 10 miles , 16 km
Cloud details: Overcast 2700 ft
2018/10/17 19:53 KTOI 171953Z AUTO 35011KT 10SM OVC027 26/20 A3018 RMK AO2 SLP215 T02560200
K79J - Andalusia/Opp Ar, Alabama, USA
Distance from station: S 29mi, 47km
Updated: Wed, 17-Oct-2018 2:09pm CDT
Overcast
Overcast
 Wind from varies
Wind: varies 6 mph , 9 km/h
Temperature: 81°F , 27°C
Heat Index: 85°F , 29°C
Dew Point: 70°F , 21°C
Humidity: 70%
Barometer: 30.17 inHg , 1021.7 hPa
Clouds: Overcast
Visibility: 10 miles , 16 km
Cloud details: Overcast 1200 ft
2018/10/17 19:09 K79J 171909Z AUTO VRB05KT 10SM OVC012 27/21 A3017 RMK AO2 T02720211
 
KMGM - Montgomery, Alabama, USA
Distance from station: N 39mi, 63km
Updated: Wed, 17-Oct-2018 2:53pm CDT
Overcast
Overcast
 Wind from NW
Wind: NW 5 mph , 7 km/h
Temperature: 77°F , 25°C
Dew Point: 64°F , 18°C
Humidity: 65%
Barometer: 30.20 inHg , 1022.7 hPa
Clouds: Overcast
Visibility: 10 miles , 16 km
Cloud details: Mostly cloudy 4800 ft
Overcast 5500 ft
2018/10/17 19:53 KMGM 171953Z 32004KT 10SM BKN048 OVC055 25/18 A3020 RMK AO2 SLP223 T02500183
KMXF - Maxwell Afb/Mgm, Alabama, USA
Distance from station: N 44mi, 70km
Updated: Wed, 17-Oct-2018 2:56pm CDT
Overcast
Overcast
 Wind from NNW
Wind: NNW 5 mph , 7 km/h
Temperature: 75°F , 24°C
Dew Point: 66°F , 19°C
Humidity: 74%
Barometer: 30.19 inHg , 1022.4 hPa
Clouds: Overcast
Visibility: 10 miles , 16 km
Cloud details: Partly cloudy 4700 ft
Overcast 7000 ft
2018/10/17 19:56 KMXF 171956Z AUTO 33004KT 10SM SCT047 OVC070 24/19 A3019 RMK AO2 SLP225 T02430187 $
KLOR - Lowe Ahp/Ft. Ruc, Alabama, USA
Distance from station: SE 44mi, 71km
Updated: Wed, 17-Oct-2018 1:58pm CDT
Partly cloudy
Partly cloudy
 Wind from NNE
Wind: NNE 3 mph , 6 km/h
Temperature: 82°F , 28°C
Heat Index: 86°F , 30°C
Dew Point: 72°F , 22°C
Humidity: 70%
Barometer: 30.14 inHg , 1020.7 hPa
Clouds: Partly cloudy
Visibility: 10 miles , 16 km
Cloud details: Few Clouds 2700 ft
Partly cloudy 4500 ft
2018/10/17 18:58 KLOR 171858Z AUTO 02003KT 10SM FEW027 SCT045 28/22 A3014 RMK AO2 SLP187 T02830223
 
KGZH - Evergreen, Alabama, USA
Distance from station: WSW 46mi, 75km
Updated: Wed, 17-Oct-2018 2:53pm CDT
Overcast
Overcast
 Wind from N
Wind: N 9 mph , 15 km/h
Temperature: 77°F , 25°C
Dew Point: 70°F , 21°C
Humidity: 79%
Barometer: 30.17 inHg , 1021.7 hPa
Clouds: Overcast
Visibility: 10 miles , 16 km
Cloud details: Overcast 1400 ft
2018/10/17 19:53 KGZH 171953Z AUTO 36008KT 10SM OVC014 25/21 A3017 RMK AO2 SLP215 T02500206
K0J4 - Florala Muni, Alabama, USA
Distance from station: S 47mi, 76km
Updated: Wed, 17-Oct-2018 2:51pm CDT
Overcast
Overcast
 Wind from varies
Wind: varies 5 mph , 7 km/h
Temperature: 79°F , 26°C
Dew Point: 70°F , 21°C
Humidity: 74%
Barometer: 30.17 inHg , 1021.7 hPa
Clouds: Overcast
Visibility: 10 miles , 16 km
Cloud details: Overcast 1500 ft
2018/10/17 19:51 K0J4 171951Z AUTO VRB04KT 10SM OVC015 26/21 A3017 RMK AO2 T02610211
KOZR - Ozark/Cairns Aaf, Alabama, USA
Distance from station: SE 49mi, 78km
Updated: Wed, 17-Oct-2018 2:56pm CDT
Clear
Clear
 Wind from NW
Wind: NW 8 mph , 13 km/h
Temperature: 86°F , 30°C
Heat Index: 92°F , 33°C
Dew Point: 72°F , 22°C
Humidity: 62%
Barometer: 30.13 inHg , 1020.3 hPa
Clouds: Clear
Visibility: 10 miles , 16 km
2018/10/17 19:56 KOZR 171956Z AUTO 31007KT 10SM CLR 30/22 A3013 RMK AO2 SLP203 T03000221 $
 
KHEY - Ft Rucker/Hanche, Alabama, USA
Distance from station: ESE 49mi, 79km
Updated: Wed, 17-Oct-2018 1:58pm CDT
Partly cloudy
Partly cloudy
 Wind from N
Wind: N 6 mph , 9 km/h
Temperature: 84°F , 29°C
Heat Index: 89°F , 32°C
Dew Point: 72°F , 22°C
Humidity: 66%
Barometer: 30.13 inHg , 1020.3 hPa
Clouds: Partly cloudy
Visibility: 10 miles , 16 km
Cloud details: Few Clouds 3300 ft
Partly cloudy 4100 ft
2018/10/17 18:58 KHEY 171858Z AUTO 01005KT 10SM FEW033 SCT041 29/22 A3013 RMK AO2 SLP203 T02920215 $
KDHN - Dothan, Alabama, USA
Distance from station: ESE 61mi, 97km
Updated: Wed, 17-Oct-2018 2:53pm CDT
Partly cloudy
Partly cloudy
 Wind from N
Wind: N 8 mph , 13 km/h
Temperature: 88°F , 31°C
Heat Index: 92°F , 33°C
Dew Point: 68°F , 20°C
Humidity: 52%
Barometer: 30.17 inHg , 1021.7 hPa
Clouds: Partly cloudy
Visibility: 10 miles , 16 km
Cloud details: Partly cloudy 3800 ft
2018/10/17 19:53 KDHN 171953Z 35007KT 10SM SCT038 31/20 A3017 RMK AO2 SLP208 T03110200
KCEW - Crestview, Florida, USA
Distance from station: S 66mi, 107km
Updated: Wed, 17-Oct-2018 2:53pm CDT
Haze, Overcast
Haze, Overcast
 Wind from varies
Wind: varies 6 mph , 9 km/h
Temperature: 81°F , 27°C
Heat Index: 85°F , 29°C
Dew Point: 72°F , 22°C
Humidity: 74%
Barometer: 30.16 inHg , 1021.3 hPa
Summary: Haze
Clouds: Overcast
Visibility: 2 1/2 miles , 4 km
Cloud details: Overcast 1400 ft
2018/10/17 19:53 KCEW 171953Z AUTO VRB05KT 2 1/2SM HZ OVC014 27/22 A3016 RMK AO2 SLP210 T02670217 $
 
KEUF - Eufaula, Alabama, USA
Distance from station: ENE 73mi, 118km
Updated: Wed, 17-Oct-2018 2:58pm CDT
Overcast
Overcast
 Wind from varies
Wind: varies 6 mph , 9 km/h
Temperature: 82°F , 28°C
Heat Index: 86°F , 30°C
Dew Point: 70°F , 21°C
Humidity: 66%
Barometer: 30.15 inHg , 1021 hPa
Clouds: Overcast
Visibility: 10 miles , 16 km
Cloud details: Overcast 3400 ft
2018/10/17 19:58 KEUF 171958Z AUTO VRB05KT 10SM OVC034 28/21 A3015 RMK AO2 SLP206 T02830206
KJKA - Gulf Shores, Alabama, USA
Distance from station: SSW 132mi, 212km
Updated: Wed, 17-Oct-2018 2:35pm CDT
Overcast
Overcast
 Wind from calm
Wind: Calm
Temperature: 81°F , 27°C
Heat Index: 86°F , 30°C
Dew Point: 73°F , 23°C
Humidity: 79%
Barometer: 30.12 inHg , 1020 hPa
Clouds: Overcast
Visibility: 10 miles , 16 km
Cloud details: Mostly cloudy 2300 ft
Mostly cloudy 3200 ft
Overcast 5000 ft
2018/10/17 19:35 KJKA 171935Z AUTO 00000KT 10SM BKN023 BKN032 OVC050 27/23 A3012 RMK AO2 T02680230
KLSF - Ft Benning/Colum, Georgia, USA
Distance from station: SNE 89mi, 143km
Updated: Wed, 17-Oct-2018 2:56pm CDT
Partly cloudy
Partly cloudy
 Wind from NNW
Wind: NNW 10 mph , 17 km/h
Temperature: 82°F , 28°C
Heat Index: 84°F , 29°C
Dew Point: 66°F , 19°C
Humidity: 58%
Barometer: 30.16 inHg , 1021.3 hPa
Clouds: Partly cloudy
Visibility: 10 miles , 16 km
Cloud details: Partly cloudy 4100 ft
Partly cloudy 6500 ft
2018/10/17 19:56 KLSF 171956Z AUTO 33009KT 10SM SCT041 SCT065 28/19 A3016 RMK AO2 SLP216 T02770187
 
KMOB - Mobile/Bates, Alabama, USA
Distance from station: SW 125mi, 202km
Updated: Wed, 17-Oct-2018 2:56pm CDT
Mostly cloudy
Mostly cloudy
 Wind from N
Wind: N 8 mph , 13 km/h
Temperature: 81°F , 27°C
Heat Index: 85°F , 29°C
Dew Point: 70°F , 21°C
Humidity: 70%
Barometer: 30.16 inHg , 1021.3 hPa
Clouds: Mostly cloudy
Visibility: 10 miles , 16 km
Cloud details: Mostly cloudy 3100 ft
2018/10/17 19:56 KMOB 171956Z 01007KT 330V030 10SM BKN031 27/21 A3016 RMK AO2 SLP211 T02720211
KNMM - Meridian Nas, Mississippi, USA
Distance from station: WNW 151mi, 243km
Updated: Wed, 17-Oct-2018 2:38pm CDT
Overcast
Overcast
 Wind from N
Wind: N 8 mph , 13 km/h
Temperature: 64°F , 18°C
Dew Point: 59°F , 15°C
Humidity: 83%
Barometer: 30.26 inHg , 1024.7 hPa
Clouds: Overcast
Visibility: 10 miles , 16 km
Cloud details: Mostly cloudy 1100 ft
Overcast 5000 ft
2018/10/17 19:38 KNMM 171938Z 01007KT 10SM BKN011 OVC050 18/15 A3026 RMK AO2 CIG 008V013 T01780150 $
KQHY - Hurlbert (Ft Walton Bch), Florida, USA
Distance from station: S 94mi, 151km
Updated: Wed, 17-Oct-2018 2:56pm CDT
Mostly cloudy
Mostly cloudy
 Wind from NNE
Wind: NNE 6 mph , 9 km/h
Temperature: 84°F , 29°C
Heat Index: 90°F , 32°C
Dew Point: 73°F , 23°C
Humidity: 70%
Barometer: 30.13 inHg , 1020.3 hPa
Clouds: Mostly cloudy
Visibility: 10 miles , 16 km
Cloud details: Mostly cloudy 2600 ft
2018/10/17 19:56 KQHY 171956Z AUTO 02005KT 10SM BKN026 29/23 A3013 RMK AO2 CIG 026V032 SLP206 T02870233 $
 
KTCL - Tuscaloosa, Alabama, USA
Distance from station: NNW 129mi, 207km
Updated: Wed, 17-Oct-2018 2:53pm CDT
Overcast
Overcast
 Wind from NNE
Wind: NNE 9 mph , 15 km/h
Temperature: 68°F , 20°C
Dew Point: 52°F , 11°C
Humidity: 56%
Barometer: 30.26 inHg , 1024.7 hPa
Clouds: Overcast
Visibility: 10 miles , 16 km
Cloud details: Overcast 7500 ft
2018/10/17 19:53 KTCL 171953Z 02008KT 10SM OVC075 20/11 A3026 RMK AO2 SLP246 T02000106
KECP - Panama City, Florida, USA
Distance from station: SSE 122mi, 196km
Updated: Wed, 17-Oct-2018 1:53pm CDT
Partly cloudy
Partly cloudy
 Wind from SW
Wind: SW 6 mph , 9 km/h
Barometer: 30.10 inHg , 1019.3 hPa
Clouds: Partly cloudy
Visibility: 10 miles , 16 km
Cloud details: Partly cloudy 4600 ft
Partly cloudy 7000 ft
2018/10/17 18:53 KECP 171853Z 23005KT 10SM SCT046 SCT070 A3010
KCBM - Columbus Afb, Mississippi, USA
Distance from station: NW 175mi, 282km
Updated: Wed, 17-Oct-2018 2:56pm CDT
Overcast
Overcast
 Wind from N
Wind: N 8 mph , 13 km/h
Temperature: 64°F , 18°C
Dew Point: 52°F , 11°C
Humidity: 64%
Barometer: 30.28 inHg , 1025.4 hPa
Clouds: Overcast
Visibility: 10 miles , 16 km
Cloud details: Overcast 8000 ft
2018/10/17 19:56 KCBM 171956Z AUTO 35007KT 10SM OVC080 18/11 A3028 RMK AO2 SLP256 T01760105 $
 
KBHM - Birmingham, Alabama, USA
Distance from station: N 132mi, 212km
Updated: Wed, 17-Oct-2018 2:53pm CDT
Overcast
Overcast
 Wind from NNW
Wind: NNW 9 mph , 15 km/h
Temperature: 66°F , 19°C
Dew Point: 54°F , 12°C
Humidity: 64%
Barometer: 30.28 inHg , 1025.4 hPa
Clouds: Overcast
Visibility: 10 miles , 16 km
Cloud details: Overcast 9000 ft
2018/10/17 19:53 KBHM 171953Z 34008KT 10SM OVC090 19/12 A3028 RMK AO2 SLP250 T01890117
KAAF - Apalachicola, Florida, USA
Distance from station: SSE 156mi, 250km
Updated: Wed, 10-Oct-2018 11:53am CDT
NOT Current
Heavy rain, Overcast
Heavy rain, Overcast
 Wind from S
Wind: S 58 mph , 93 km/h, Gust: 84 mph , 135 km/h
Temperature: 81°F , 27°C
Barometer: 29.12 inHg , 986.1 hPa
Summary: Heavy rain
Clouds: Overcast
Visibility: 1/4 mile , 0.4 km
Cloud details: Mostly cloudy 900 ft
Overcast 1500 ft
2018/10/10 16:53 KAAF 101653Z AUTO 17050G73KT 1/4SM +RA BKN009 OVC015 27/ A2912 RMK AO2 PK WND 15077/1631 LTG DSNT W AND NW PRESFR SLP859 P0048 T0267
KATL - Atlanta, Georgia, USA
Distance from station: NE 177mi, 287km
Updated: Wed, 17-Oct-2018 2:52pm CDT
Mostly cloudy
Mostly cloudy
 Wind from NW
Wind: NW 10 mph , 17 km/h
Temperature: 73°F , 23°C
Dew Point: 45°F , 7°C
Humidity: 36%
Barometer: 30.21 inHg , 1023 hPa
Clouds: Mostly cloudy
Visibility: 10 miles , 16 km
Cloud details: Partly cloudy 9500 ft
Mostly cloudy 12000 ft
2018/10/17 19:52 KATL 171952Z 32009KT 10SM SCT095 BKN120 23/07 A3021 RMK AO2 SLP223 T02280072
 
KGPT - Gulfport, Mississippi, USA
Distance from station: SW 192mi, 309km
Updated: Wed, 17-Oct-2018 2:53pm CDT
Mostly cloudy
Mostly cloudy
 Wind from NNE
Wind: NNE 10 mph , 17 km/h
Temperature: 81°F , 27°C
Heat Index: 85°F , 29°C
Dew Point: 70°F , 21°C
Humidity: 70%
Barometer: 30.13 inHg , 1020.3 hPa
Clouds: Mostly cloudy
Visibility: 10 miles , 16 km
Cloud details: Mostly cloudy 1400 ft
2018/10/17 19:53 KGPT 171953Z 03009KT 10SM BKN014 27/21 A3013 RMK AO2 SLP204 T02670206
KNEW - New Orleans/Lake, Louisiana, USA
Distance from station: SW 255mi, 410km
Updated: Wed, 17-Oct-2018 2:53pm CDT
Overcast
Overcast
 Wind from NNE
Wind: NNE 13 mph , 20 km/h
Temperature: 75°F , 24°C
Dew Point: 70°F , 21°C
Humidity: 83%
Barometer: 30.14 inHg , 1020.7 hPa
Clouds: Overcast
Visibility: 10 miles , 16 km
Cloud details: Overcast 1000 ft
2018/10/17 19:53 KNEW 171953Z 03011KT 10SM OVC010 24/21 A3014 RMK AO2 SLP199 T02440211
KP92 - Salt Point, Louisiana, USA
Distance from station: SW 347mi, 559km
Updated: Wed, 17-Oct-2018 1:53pm CDT

 Wind from varies
Wind: varies 6 mph , 9 km/h
Barometer: 30.10 inHg , 1019.3 hPa
2018/10/17 18:53 KP92 171853Z AUTO VRB05KT A3010 RMK AO1 SLP194 $